TAF KMLI
AMD KMLI 091009Z 0910/1006 13010G18KT P6SM OVC250 WS014/18040KT FM091600 17011KT P6SM OVC040 FM092000 22008KT P6SM OVC035 FM092300 25005KT P6SM BKN150=
METAR KMLI
WC KMLI
WS KMLI
WV KMLI